sensor_id;sensor_type;location;lat;lon;timestamp;temperature;humidity
46706;DHT22;33519;50.712;7.124;2023-05-07T00:00:44;13.60;99.90
46706;DHT22;33519;50.712;7.124;2023-05-07T00:03:11;13.60;99.90
46706;DHT22;33519;50.712;7.124;2023-05-07T00:05:38;13.50;99.90
46706;DHT22;33519;50.712;7.124;2023-05-07T00:08:05;13.50;99.90
46706;DHT22;33519;50.712;7.124;2023-05-07T00:10:32;13.50;99.90
46706;DHT22;33519;50.712;7.124;2023-05-07T00:12:58;13.50;99.90
46706;DHT22;33519;50.712;7.124;2023-05-07T00:15:25;13.50;99.90
46706;DHT22;33519;50.712;7.124;2023-05-07T00:17:51;13.50;99.90
46706;DHT22;33519;50.712;7.124;2023-05-07T00:20:18;13.50;99.90
46706;DHT22;33519;50.712;7.124;2023-05-07T00:22:44;13.50;99.90
46706;DHT22;33519;50.712;7.124;2023-05-07T00:25:11;13.50;99.90
46706;DHT22;33519;50.712;7.124;2023-05-07T00:27:38;13.40;99.90
46706;DHT22;33519;50.712;7.124;2023-05-07T00:30:04;13.40;99.90
46706;DHT22;33519;50.712;7.124;2023-05-07T00:32:31;13.40;99.90
46706;DHT22;33519;50.712;7.124;2023-05-07T00:34:58;13.40;99.90
46706;DHT22;33519;50.712;7.124;2023-05-07T00:37:24;13.40;99.90
46706;DHT22;33519;50.712;7.124;2023-05-07T00:39:51;13.40;99.90
46706;DHT22;33519;50.712;7.124;2023-05-07T00:42:18;13.40;99.90
46706;DHT22;33519;50.712;7.124;2023-05-07T00:44:44;13.40;99.90
46706;DHT22;33519;50.712;7.124;2023-05-07T00:47:11;13.40;99.90
46706;DHT22;33519;50.712;7.124;2023-05-07T00:49:39;13.40;99.90
46706;DHT22;33519;50.712;7.124;2023-05-07T00:52:06;13.40;99.90
46706;DHT22;33519;50.712;7.124;2023-05-07T00:54:34;13.40;99.90
46706;DHT22;33519;50.712;7.124;2023-05-07T00:57:01;13.40;99.90
46706;DHT22;33519;50.712;7.124;2023-05-07T00:59:28;13.30;99.90
46706;DHT22;33519;50.712;7.124;2023-05-07T01:01:55;13.30;99.90
46706;DHT22;33519;50.712;7.124;2023-05-07T01:04:22;13.30;99.90
46706;DHT22;33519;50.712;7.124;2023-05-07T01:06:49;13.20;99.90
46706;DHT22;33519;50.712;7.124;2023-05-07T01:09:16;13.20;99.90
46706;DHT22;33519;50.712;7.124;2023-05-07T01:14:16;13.20;99.90
46706;DHT22;33519;50.712;7.124;2023-05-07T01:16:43;13.20;99.90
46706;DHT22;33519;50.712;7.124;2023-05-07T01:19:11;13.10;99.90
46706;DHT22;33519;50.712;7.124;2023-05-07T01:21:37;13.20;99.90
46706;DHT22;33519;50.712;7.124;2023-05-07T01:24:05;13.20;99.90
46706;DHT22;33519;50.712;7.124;2023-05-07T01:26:32;13.20;99.90
46706;DHT22;33519;50.712;7.124;2023-05-07T01:28:58;13.10;99.90
46706;DHT22;33519;50.712;7.124;2023-05-07T01:31:25;13.20;99.90
46706;DHT22;33519;50.712;7.124;2023-05-07T01:33:52;13.20;99.90
46706;DHT22;33519;50.712;7.124;2023-05-07T01:36:19;13.20;99.90
46706;DHT22;33519;50.712;7.124;2023-05-07T01:38:46;13.10;99.90
46706;DHT22;33519;50.712;7.124;2023-05-07T01:41:13;13.10;99.90
46706;DHT22;33519;50.712;7.124;2023-05-07T01:43:40;13.20;99.90
46706;DHT22;33519;50.712;7.124;2023-05-07T01:46:07;13.10;99.90
46706;DHT22;33519;50.712;7.124;2023-05-07T01:48:36;13.10;99.90
46706;DHT22;33519;50.712;7.124;2023-05-07T01:51:03;13.10;99.90
46706;DHT22;33519;50.712;7.124;2023-05-07T01:53:35;13.10;99.90
46706;DHT22;33519;50.712;7.124;2023-05-07T01:56:02;13.10;99.90
46706;DHT22;33519;50.712;7.124;2023-05-07T01:58:29;13.20;99.90
46706;DHT22;33519;50.712;7.124;2023-05-07T02:00:55;13.20;99.90
46706;DHT22;33519;50.712;7.124;2023-05-07T02:03:22;13.20;99.90
46706;DHT22;33519;50.712;7.124;2023-05-07T02:05:48;13.10;99.90
46706;DHT22;33519;50.712;7.124;2023-05-07T02:08:15;13.10;99.90
46706;DHT22;33519;50.712;7.124;2023-05-07T02:10:41;13.10;99.90
46706;DHT22;33519;50.712;7.124;2023-05-07T02:13:08;13.10;99.90
46706;DHT22;33519;50.712;7.124;2023-05-07T02:15:34;13.10;99.90
46706;DHT22;33519;50.712;7.124;2023-05-07T02:18:05;13.10;99.90
46706;DHT22;33519;50.712;7.124;2023-05-07T02:20:32;13.00;99.90
46706;DHT22;33519;50.712;7.124;2023-05-07T02:22:59;13.00;99.90
46706;DHT22;33519;50.712;7.124;2023-05-07T02:25:26;13.00;99.90
46706;DHT22;33519;50.712;7.124;2023-05-07T02:27:53;13.00;99.90
46706;DHT22;33519;50.712;7.124;2023-05-07T02:30:19;13.00;99.90
46706;DHT22;33519;50.712;7.124;2023-05-07T02:32:47;13.00;99.90
46706;DHT22;33519;50.712;7.124;2023-05-07T02:35:14;12.90;99.90
46706;DHT22;33519;50.712;7.124;2023-05-07T02:37:41;12.90;99.90
46706;DHT22;33519;50.712;7.124;2023-05-07T02:40:10;13.00;99.90
46706;DHT22;33519;50.712;7.124;2023-05-07T02:42:37;12.90;99.90
46706;DHT22;33519;50.712;7.124;2023-05-07T02:45:04;12.90;99.90
46706;DHT22;33519;50.712;7.124;2023-05-07T02:47:31;12.90;99.90
46706;DHT22;33519;50.712;7.124;2023-05-07T02:49:57;12.90;99.90
46706;DHT22;33519;50.712;7.124;2023-05-07T02:52:24;12.90;99.90
46706;DHT22;33519;50.712;7.124;2023-05-07T02:54:50;12.90;99.90
46706;DHT22;33519;50.712;7.124;2023-05-07T02:57:17;12.90;99.90
46706;DHT22;33519;50.712;7.124;2023-05-07T02:59:44;12.90;99.90
46706;DHT22;33519;50.712;7.124;2023-05-07T03:02:10;12.80;99.90
46706;DHT22;33519;50.712;7.124;2023-05-07T03:04:37;12.80;99.90
46706;DHT22;33519;50.712;7.124;2023-05-07T03:07:04;12.80;99.90
46706;DHT22;33519;50.712;7.124;2023-05-07T03:09:30;12.70;99.90
46706;DHT22;33519;50.712;7.124;2023-05-07T03:11:57;12.70;99.90
46706;DHT22;33519;50.712;7.124;2023-05-07T03:14:24;12.70;99.90
46706;DHT22;33519;50.712;7.124;2023-05-07T03:16:50;12.70;99.90
46706;DHT22;33519;50.712;7.124;2023-05-07T03:19:17;12.80;99.90
46706;DHT22;33519;50.712;7.124;2023-05-07T03:21:43;12.80;99.90
46706;DHT22;33519;50.712;7.124;2023-05-07T03:24:10;12.80;99.90
46706;DHT22;33519;50.712;7.124;2023-05-07T03:26:36;12.80;99.90
46706;DHT22;33519;50.712;7.124;2023-05-07T03:29:03;12.80;99.90
46706;DHT22;33519;50.712;7.124;2023-05-07T03:31:29;12.80;99.90
46706;DHT22;33519;50.712;7.124;2023-05-07T03:33:56;12.70;99.90
46706;DHT22;33519;50.712;7.124;2023-05-07T03:36:23;12.80;99.90
46706;DHT22;33519;50.712;7.124;2023-05-07T03:38:50;12.80;99.90
46706;DHT22;33519;50.712;7.124;2023-05-07T03:41:17;12.80;99.90
46706;DHT22;33519;50.712;7.124;2023-05-07T03:43:43;12.80;99.90
46706;DHT22;33519;50.712;7.124;2023-05-07T03:46:10;12.80;99.90
46706;DHT22;33519;50.712;7.124;2023-05-07T03:48:36;12.80;99.90
46706;DHT22;33519;50.712;7.124;2023-05-07T03:51:03;12.80;99.90
46706;DHT22;33519;50.712;7.124;2023-05-07T03:53:30;12.90;99.90
46706;DHT22;33519;50.712;7.124;2023-05-07T03:55:56;12.80;99.90
46706;DHT22;33519;50.712;7.124;2023-05-07T03:58:23;12.80;99.90
46706;DHT22;33519;50.712;7.124;2023-05-07T04:00:49;12.80;99.90
46706;DHT22;33519;50.712;7.124;2023-05-07T04:03:16;12.80;99.90
46706;DHT22;33519;50.712;7.124;2023-05-07T04:05:43;12.80;99.90
46706;DHT22;33519;50.712;7.124;2023-05-07T04:08:10;12.80;99.90
46706;DHT22;33519;50.712;7.124;2023-05-07T04:10:36;12.80;99.90
46706;DHT22;33519;50.712;7.124;2023-05-07T04:13:03;12.80;99.90
46706;DHT22;33519;50.712;7.124;2023-05-07T04:15:29;12.80;99.90
46706;DHT22;33519;50.712;7.124;2023-05-07T04:17:56;12.80;99.90
46706;DHT22;33519;50.712;7.124;2023-05-07T04:20:23;12.80;99.90
46706;DHT22;33519;50.712;7.124;2023-05-07T04:22:49;12.80;99.90
46706;DHT22;33519;50.712;7.124;2023-05-07T04:25:16;12.80;99.90
46706;DHT22;33519;50.712;7.124;2023-05-07T04:27:42;12.90;99.90
46706;DHT22;33519;50.712;7.124;2023-05-07T04:30:09;12.80;99.90
46706;DHT22;33519;50.712;7.124;2023-05-07T04:32:36;12.80;99.90
46706;DHT22;33519;50.712;7.124;2023-05-07T04:35:04;12.80;99.90
46706;DHT22;33519;50.712;7.124;2023-05-07T04:37:31;12.90;99.90
46706;DHT22;33519;50.712;7.124;2023-05-07T04:39:58;12.90;99.90
46706;DHT22;33519;50.712;7.124;2023-05-07T04:42:24;12.90;99.90
46706;DHT22;33519;50.712;7.124;2023-05-07T04:44:52;12.90;99.90
46706;DHT22;33519;50.712;7.124;2023-05-07T04:47:19;13.00;99.90
46706;DHT22;33519;50.712;7.124;2023-05-07T04:49:46;13.00;99.90
46706;DHT22;33519;50.712;7.124;2023-05-07T04:52:12;13.00;99.90
46706;DHT22;33519;50.712;7.124;2023-05-07T04:54:39;13.10;99.90
46706;DHT22;33519;50.712;7.124;2023-05-07T04:57:06;13.10;99.90
46706;DHT22;33519;50.712;7.124;2023-05-07T04:59:32;13.10;99.90
46706;DHT22;33519;50.712;7.124;2023-05-07T05:01:59;13.20;99.90
46706;DHT22;33519;50.712;7.124;2023-05-07T05:04:26;13.20;99.90
46706;DHT22;33519;50.712;7.124;2023-05-07T05:06:52;13.30;99.90
46706;DHT22;33519;50.712;7.124;2023-05-07T05:09:19;13.30;99.90
46706;DHT22;33519;50.712;7.124;2023-05-07T05:11:45;13.30;99.90
46706;DHT22;33519;50.712;7.124;2023-05-07T05:14:12;13.40;99.90
46706;DHT22;33519;50.712;7.124;2023-05-07T05:16:38;13.50;99.90
46706;DHT22;33519;50.712;7.124;2023-05-07T05:19:05;13.50;99.90
46706;DHT22;33519;50.712;7.124;2023-05-07T05:21:31;13.60;99.90
46706;DHT22;33519;50.712;7.124;2023-05-07T05:23:58;13.70;99.90
46706;DHT22;33519;50.712;7.124;2023-05-07T05:26:24;13.80;99.90
46706;DHT22;33519;50.712;7.124;2023-05-07T05:28:52;13.90;99.90
46706;DHT22;33519;50.712;7.124;2023-05-07T05:31:18;14.00;99.90
46706;DHT22;33519;50.712;7.124;2023-05-07T05:33:45;14.10;99.90
46706;DHT22;33519;50.712;7.124;2023-05-07T05:36:11;14.10;99.90
46706;DHT22;33519;50.712;7.124;2023-05-07T05:38:39;14.20;99.90
46706;DHT22;33519;50.712;7.124;2023-05-07T05:41:06;14.20;99.90
46706;DHT22;33519;50.712;7.124;2023-05-07T05:43:33;14.30;99.90
46706;DHT22;33519;50.712;7.124;2023-05-07T05:45:59;14.30;99.90
46706;DHT22;33519;50.712;7.124;2023-05-07T05:48:28;14.30;99.90
46706;DHT22;33519;50.712;7.124;2023-05-07T05:50:55;14.30;99.90
46706;DHT22;33519;50.712;7.124;2023-05-07T05:53:21;14.30;99.90
46706;DHT22;33519;50.712;7.124;2023-05-07T05:55:49;14.30;99.90
46706;DHT22;33519;50.712;7.124;2023-05-07T05:58:15;14.40;99.90
46706;DHT22;33519;50.712;7.124;2023-05-07T06:00:43;14.30;99.90
46706;DHT22;33519;50.712;7.124;2023-05-07T06:03:11;14.50;99.90
46706;DHT22;33519;50.712;7.124;2023-05-07T06:05:39;14.60;99.90
46706;DHT22;33519;50.712;7.124;2023-05-07T06:08:06;14.80;99.90
46706;DHT22;33519;50.712;7.124;2023-05-07T06:10:32;14.90;99.90
46706;DHT22;33519;50.712;7.124;2023-05-07T06:12:59;15.10;99.90
46706;DHT22;33519;50.712;7.124;2023-05-07T06:15:26;15.30;99.90
46706;DHT22;33519;50.712;7.124;2023-05-07T06:17:52;15.60;99.90
46706;DHT22;33519;50.712;7.124;2023-05-07T06:20:19;15.70;99.90
46706;DHT22;33519;50.712;7.124;2023-05-07T06:22:46;15.90;99.90
46706;DHT22;33519;50.712;7.124;2023-05-07T06:25:12;16.00;99.90
46706;DHT22;33519;50.712;7.124;2023-05-07T06:27:39;16.00;99.90
46706;DHT22;33519;50.712;7.124;2023-05-07T06:30:06;16.00;99.90
46706;DHT22;33519;50.712;7.124;2023-05-07T06:32:33;16.10;99.90
46706;DHT22;33519;50.712;7.124;2023-05-07T06:35:00;16.20;99.90
46706;DHT22;33519;50.712;7.124;2023-05-07T06:37:26;16.30;99.90
46706;DHT22;33519;50.712;7.124;2023-05-07T06:39:53;16.30;99.90
46706;DHT22;33519;50.712;7.124;2023-05-07T06:42:19;16.50;99.90
46706;DHT22;33519;50.712;7.124;2023-05-07T06:44:46;16.50;99.90
46706;DHT22;33519;50.712;7.124;2023-05-07T06:47:12;16.60;99.90
46706;DHT22;33519;50.712;7.124;2023-05-07T06:49:41;16.60;99.90
46706;DHT22;33519;50.712;7.124;2023-05-07T06:52:08;16.80;99.90
46706;DHT22;33519;50.712;7.124;2023-05-07T06:54:35;16.80;99.90
46706;DHT22;33519;50.712;7.124;2023-05-07T06:57:01;17.00;99.90
46706;DHT22;33519;50.712;7.124;2023-05-07T06:59:28;17.10;99.90
46706;DHT22;33519;50.712;7.124;2023-05-07T07:01:54;17.20;99.90
46706;DHT22;33519;50.712;7.124;2023-05-07T07:04:21;17.30;99.90
46706;DHT22;33519;50.712;7.124;2023-05-07T07:06:51;17.40;99.90
46706;DHT22;33519;50.712;7.124;2023-05-07T07:09:17;17.50;99.90
46706;DHT22;33519;50.712;7.124;2023-05-07T07:11:44;17.50;99.90
46706;DHT22;33519;50.712;7.124;2023-05-07T07:14:11;17.50;99.90
46706;DHT22;33519;50.712;7.124;2023-05-07T07:16:37;17.40;99.90
46706;DHT22;33519;50.712;7.124;2023-05-07T07:19:04;17.30;99.90
46706;DHT22;33519;50.712;7.124;2023-05-07T07:21:30;17.10;99.90
46706;DHT22;33519;50.712;7.124;2023-05-07T07:23:58;17.10;99.90
46706;DHT22;33519;50.712;7.124;2023-05-07T07:26:24;16.90;99.90
46706;DHT22;33519;50.712;7.124;2023-05-07T07:28:51;17.10;99.90
46706;DHT22;33519;50.712;7.124;2023-05-07T07:31:18;17.30;99.90
46706;DHT22;33519;50.712;7.124;2023-05-07T07:33:44;17.60;99.90
46706;DHT22;33519;50.712;7.124;2023-05-07T07:36:11;17.80;99.90
46706;DHT22;33519;50.712;7.124;2023-05-07T07:38:40;18.00;99.90
46706;DHT22;33519;50.712;7.124;2023-05-07T07:41:10;18.30;99.90
46706;DHT22;33519;50.712;7.124;2023-05-07T07:43:36;18.50;99.90
46706;DHT22;33519;50.712;7.124;2023-05-07T07:46:03;18.40;99.90
46706;DHT22;33519;50.712;7.124;2023-05-07T07:48:30;18.20;99.90
46706;DHT22;33519;50.712;7.124;2023-05-07T07:50:56;18.40;99.90
46706;DHT22;33519;50.712;7.124;2023-05-07T07:53:23;18.50;99.90
46706;DHT22;33519;50.712;7.124;2023-05-07T07:55:49;18.70;99.90
46706;DHT22;33519;50.712;7.124;2023-05-07T07:58:16;18.90;99.90
46706;DHT22;33519;50.712;7.124;2023-05-07T08:00:43;18.90;99.90
46706;DHT22;33519;50.712;7.124;2023-05-07T08:03:09;18.90;99.90
46706;DHT22;33519;50.712;7.124;2023-05-07T08:05:37;19.20;99.90
46706;DHT22;33519;50.712;7.124;2023-05-07T08:08:04;19.50;99.90
46706;DHT22;33519;50.712;7.124;2023-05-07T08:10:32;19.90;99.90
46706;DHT22;33519;50.712;7.124;2023-05-07T08:13:01;19.70;99.90
46706;DHT22;33519;50.712;7.124;2023-05-07T08:15:29;19.70;99.90
46706;DHT22;33519;50.712;7.124;2023-05-07T08:17:57;19.80;99.90
46706;DHT22;33519;50.712;7.124;2023-05-07T08:20:26;19.90;99.90
46706;DHT22;33519;50.712;7.124;2023-05-07T08:22:52;20.10;99.90
46706;DHT22;33519;50.712;7.124;2023-05-07T08:25:19;20.40;99.90
46706;DHT22;33519;50.712;7.124;2023-05-07T08:27:46;20.50;99.90
46706;DHT22;33519;50.712;7.124;2023-05-07T08:30:12;20.40;99.90
46706;DHT22;33519;50.712;7.124;2023-05-07T08:32:39;20.50;99.90
46706;DHT22;33519;50.712;7.124;2023-05-07T08:35:06;20.90;99.90
46706;DHT22;33519;50.712;7.124;2023-05-07T08:37:32;20.90;99.90
46706;DHT22;33519;50.712;7.124;2023-05-07T08:39:59;21.00;99.90
46706;DHT22;33519;50.712;7.124;2023-05-07T08:42:25;20.80;99.90
46706;DHT22;33519;50.712;7.124;2023-05-07T08:44:53;20.80;99.90
46706;DHT22;33519;50.712;7.124;2023-05-07T08:47:22;20.80;99.90
46706;DHT22;33519;50.712;7.124;2023-05-07T08:49:53;20.90;99.90
46706;DHT22;33519;50.712;7.124;2023-05-07T08:52:21;20.60;99.90
46706;DHT22;33519;50.712;7.124;2023-05-07T08:54:48;20.60;99.90
46706;DHT22;33519;50.712;7.124;2023-05-07T08:57:14;20.90;99.90
46706;DHT22;33519;50.712;7.124;2023-05-07T08:59:41;21.00;99.90
46706;DHT22;33519;50.712;7.124;2023-05-07T09:02:08;21.00;99.90
46706;DHT22;33519;50.712;7.124;2023-05-07T09:04:35;21.30;99.90
46706;DHT22;33519;50.712;7.124;2023-05-07T09:07:02;21.50;99.90
46706;DHT22;33519;50.712;7.124;2023-05-07T09:09:32;22.30;99.90
46706;DHT22;33519;50.712;7.124;2023-05-07T09:11:58;22.80;99.90
46706;DHT22;33519;50.712;7.124;2023-05-07T09:14:26;22.80;99.90
46706;DHT22;33519;50.712;7.124;2023-05-07T09:16:52;23.50;99.90
46706;DHT22;33519;50.712;7.124;2023-05-07T09:19:23;24.00;99.90
46706;DHT22;33519;50.712;7.124;2023-05-07T09:21:57;24.30;99.90
46706;DHT22;33519;50.712;7.124;2023-05-07T09:24:24;23.90;99.90
46706;DHT22;33519;50.712;7.124;2023-05-07T09:26:50;24.00;99.90
46706;DHT22;33519;50.712;7.124;2023-05-07T09:29:17;23.90;99.90
46706;DHT22;33519;50.712;7.124;2023-05-07T09:31:44;23.70;99.90
46706;DHT22;33519;50.712;7.124;2023-05-07T09:34:11;24.40;99.90
46706;DHT22;33519;50.712;7.124;2023-05-07T09:36:37;24.90;99.90
46706;DHT22;33519;50.712;7.124;2023-05-07T09:39:04;25.60;98.70
46706;DHT22;33519;50.712;7.124;2023-05-07T09:41:31;26.40;97.90
46706;DHT22;33519;50.712;7.124;2023-05-07T09:43:58;26.20;96.60
46706;DHT22;33519;50.712;7.124;2023-05-07T09:46:30;25.30;96.90
46706;DHT22;33519;50.712;7.124;2023-05-07T09:48:57;25.50;97.20
46706;DHT22;33519;50.712;7.124;2023-05-07T09:51:25;25.20;97.60
46706;DHT22;33519;50.712;7.124;2023-05-07T09:53:55;25.10;98.00
46706;DHT22;33519;50.712;7.124;2023-05-07T09:56:22;26.20;96.40
46706;DHT22;33519;50.712;7.124;2023-05-07T09:58:49;26.70;95.50
46706;DHT22;33519;50.712;7.124;2023-05-07T10:01:15;27.60;93.40
46706;DHT22;33519;50.712;7.124;2023-05-07T10:03:43;28.50;92.30
46706;DHT22;33519;50.712;7.124;2023-05-07T10:06:10;28.80;90.50
46706;DHT22;33519;50.712;7.124;2023-05-07T10:08:38;28.90;87.40
46706;DHT22;33519;50.712;7.124;2023-05-07T10:11:05;26.40;91.40
46706;DHT22;33519;50.712;7.124;2023-05-07T10:13:34;26.80;92.40
46706;DHT22;33519;50.712;7.124;2023-05-07T10:16:04;26.60;92.20
46706;DHT22;33519;50.712;7.124;2023-05-07T10:18:32;26.50;92.80
46706;DHT22;33519;50.712;7.124;2023-05-07T10:21:02;26.40;93.20
46706;DHT22;33519;50.712;7.124;2023-05-07T10:23:30;26.50;92.10
46706;DHT22;33519;50.712;7.124;2023-05-07T10:25:58;26.70;91.50
46706;DHT22;33519;50.712;7.124;2023-05-07T10:28:26;25.70;92.50
46706;DHT22;33519;50.712;7.124;2023-05-07T10:30:58;25.50;92.10
46706;DHT22;33519;50.712;7.124;2023-05-07T10:33:28;25.50;92.10
46706;DHT22;33519;50.712;7.124;2023-05-07T10:35:59;26.40;91.10
46706;DHT22;33519;50.712;7.124;2023-05-07T10:38:27;27.70;86.70
46706;DHT22;33519;50.712;7.124;2023-05-07T10:40:54;29.00;82.10
46706;DHT22;33519;50.712;7.124;2023-05-07T10:43:21;29.00;78.60
46706;DHT22;33519;50.712;7.124;2023-05-07T10:46:09;28.60;80.30
46706;DHT22;33519;50.712;7.124;2023-05-07T10:49:05;29.70;76.80
46706;DHT22;33519;50.712;7.124;2023-05-07T10:51:22;30.10;74.50
46706;DHT22;33519;50.712;7.124;2023-05-07T10:54:06;29.20;75.90
46706;DHT22;33519;50.712;7.124;2023-05-07T10:56:36;31.00;72.90
46706;DHT22;33519;50.712;7.124;2023-05-07T11:01:53;32.30;68.70
46706;DHT22;33519;50.712;7.124;2023-05-07T11:04:21;30.50;68.00
46706;DHT22;33519;50.712;7.124;2023-05-07T11:15:10;28.10;75.60
46706;DHT22;33519;50.712;7.124;2023-05-07T11:17:52;27.90;76.40
46706;DHT22;33519;50.712;7.124;2023-05-07T11:20:19;27.70;75.80
46706;DHT22;33519;50.712;7.124;2023-05-07T11:22:47;27.70;77.50
46706;DHT22;33519;50.712;7.124;2023-05-07T11:25:17;27.70;76.80
46706;DHT22;33519;50.712;7.124;2023-05-07T11:27:43;27.70;75.60
46706;DHT22;33519;50.712;7.124;2023-05-07T11:30:16;27.20;76.10
46706;DHT22;33519;50.712;7.124;2023-05-07T11:32:42;27.10;76.80
46706;DHT22;33519;50.712;7.124;2023-05-07T11:35:09;26.80;77.50
46706;DHT22;33519;50.712;7.124;2023-05-07T11:37:37;28.10;75.80
46706;DHT22;33519;50.712;7.124;2023-05-07T11:40:04;29.30;73.70
46706;DHT22;33519;50.712;7.124;2023-05-07T11:42:32;28.70;73.20
46706;DHT22;33519;50.712;7.124;2023-05-07T11:44:59;28.50;73.90
46706;DHT22;33519;50.712;7.124;2023-05-07T11:47:29;28.30;74.50
46706;DHT22;33519;50.712;7.124;2023-05-07T11:49:56;27.80;74.70
46706;DHT22;33519;50.712;7.124;2023-05-07T11:52:23;27.10;75.30
46706;DHT22;33519;50.712;7.124;2023-05-07T11:54:50;26.10;77.60
46706;DHT22;33519;50.712;7.124;2023-05-07T11:57:18;25.60;80.00
46706;DHT22;33519;50.712;7.124;2023-05-07T11:59:44;25.80;80.80
46706;DHT22;33519;50.712;7.124;2023-05-07T12:02:11;26.20;79.60
46706;DHT22;33519;50.712;7.124;2023-05-07T12:04:39;26.00;79.40
46706;DHT22;33519;50.712;7.124;2023-05-07T12:07:11;25.90;80.30
46706;DHT22;33519;50.712;7.124;2023-05-07T12:09:37;25.70;79.60
46706;DHT22;33519;50.712;7.124;2023-05-07T12:12:04;25.40;80.60
46706;DHT22;33519;50.712;7.124;2023-05-07T12:14:30;25.30;81.10
46706;DHT22;33519;50.712;7.124;2023-05-07T12:16:59;25.10;81.70
46706;DHT22;33519;50.712;7.124;2023-05-07T12:19:29;25.10;81.50
46706;DHT22;33519;50.712;7.124;2023-05-07T12:21:55;24.80;81.90
46706;DHT22;33519;50.712;7.124;2023-05-07T12:24:22;24.60;82.80
46706;DHT22;33519;50.712;7.124;2023-05-07T12:26:49;24.30;84.70
46706;DHT22;33519;50.712;7.124;2023-05-07T12:29:15;24.20;86.00
46706;DHT22;33519;50.712;7.124;2023-05-07T12:31:42;24.10;87.10
46706;DHT22;33519;50.712;7.124;2023-05-07T12:34:10;24.00;87.50
46706;DHT22;33519;50.712;7.124;2023-05-07T12:36:37;23.90;86.90
46706;DHT22;33519;50.712;7.124;2023-05-07T12:39:05;23.40;88.60
46706;DHT22;33519;50.712;7.124;2023-05-07T12:41:35;23.20;89.10
46706;DHT22;33519;50.712;7.124;2023-05-07T12:44:04;22.90;89.00
46706;DHT22;33519;50.712;7.124;2023-05-07T12:46:30;22.90;89.60
46706;DHT22;33519;50.712;7.124;2023-05-07T12:48:57;23.00;89.90
46706;DHT22;33519;50.712;7.124;2023-05-07T12:51:24;23.00;89.60
46706;DHT22;33519;50.712;7.124;2023-05-07T12:53:51;22.90;88.60
46706;DHT22;33519;50.712;7.124;2023-05-07T12:56:22;22.90;88.70
46706;DHT22;33519;50.712;7.124;2023-05-07T12:58:49;22.70;89.30
46706;DHT22;33519;50.712;7.124;2023-05-07T13:01:16;22.80;89.40
46706;DHT22;33519;50.712;7.124;2023-05-07T13:03:48;22.90;90.00
46706;DHT22;33519;50.712;7.124;2023-05-07T13:06:15;23.20;90.30
46706;DHT22;33519;50.712;7.124;2023-05-07T13:08:41;23.40;90.00
46706;DHT22;33519;50.712;7.124;2023-05-07T13:11:11;22.90;90.60
46706;DHT22;33519;50.712;7.124;2023-05-07T13:13:38;22.50;93.20
46706;DHT22;33519;50.712;7.124;2023-05-07T13:16:05;22.20;95.50
46706;DHT22;33519;50.712;7.124;2023-05-07T13:18:33;22.20;97.20
46706;DHT22;33519;50.712;7.124;2023-05-07T13:21:00;22.50;96.90
46706;DHT22;33519;50.712;7.124;2023-05-07T13:23:27;22.30;97.40
46706;DHT22;33519;50.712;7.124;2023-05-07T13:25:53;22.10;97.60
46706;DHT22;33519;50.712;7.124;2023-05-07T13:28:20;22.50;96.40
46706;DHT22;33519;50.712;7.124;2023-05-07T13:30:48;22.30;96.80
46706;DHT22;33519;50.712;7.124;2023-05-07T13:33:15;22.20;96.70
46706;DHT22;33519;50.712;7.124;2023-05-07T13:35:44;22.40;96.70
46706;DHT22;33519;50.712;7.124;2023-05-07T13:38:11;22.70;96.30
46706;DHT22;33519;50.712;7.124;2023-05-07T13:40:37;23.40;94.90
46706;DHT22;33519;50.712;7.124;2023-05-07T13:43:05;23.10;95.60
46706;DHT22;33519;50.712;7.124;2023-05-07T13:45:31;23.20;95.70
46706;DHT22;33519;50.712;7.124;2023-05-07T13:47:58;23.50;95.70
46706;DHT22;33519;50.712;7.124;2023-05-07T13:50:25;23.50;95.40
46706;DHT22;33519;50.712;7.124;2023-05-07T13:52:53;23.30;96.00
46706;DHT22;33519;50.712;7.124;2023-05-07T13:55:20;22.70;97.30
46706;DHT22;33519;50.712;7.124;2023-05-07T13:57:47;22.40;98.70
46706;DHT22;33519;50.712;7.124;2023-05-07T14:00:13;22.20;99.70
46706;DHT22;33519;50.712;7.124;2023-05-07T14:02:40;22.10;99.50
46706;DHT22;33519;50.712;7.124;2023-05-07T14:05:07;21.90;99.90
46706;DHT22;33519;50.712;7.124;2023-05-07T14:07:35;22.10;99.90
46706;DHT22;33519;50.712;7.124;2023-05-07T14:10:02;22.10;99.90
46706;DHT22;33519;50.712;7.124;2023-05-07T14:12:29;22.40;99.90
46706;DHT22;33519;50.712;7.124;2023-05-07T14:14:55;22.30;99.60
46706;DHT22;33519;50.712;7.124;2023-05-07T14:17:22;22.20;99.90
46706;DHT22;33519;50.712;7.124;2023-05-07T14:19:51;21.90;99.90
46706;DHT22;33519;50.712;7.124;2023-05-07T14:22:21;21.80;99.90
46706;DHT22;33519;50.712;7.124;2023-05-07T14:24:48;21.80;99.90
46706;DHT22;33519;50.712;7.124;2023-05-07T14:27:31;22.00;99.90
46706;DHT22;33519;50.712;7.124;2023-05-07T14:29:58;21.80;99.90
46706;DHT22;33519;50.712;7.124;2023-05-07T14:32:24;21.60;99.90
46706;DHT22;33519;50.712;7.124;2023-05-07T14:34:51;21.40;99.90
46706;DHT22;33519;50.712;7.124;2023-05-07T14:37:18;21.40;99.90
46706;DHT22;33519;50.712;7.124;2023-05-07T14:39:46;21.40;99.90
46706;DHT22;33519;50.712;7.124;2023-05-07T14:42:15;21.40;99.90
46706;DHT22;33519;50.712;7.124;2023-05-07T14:44:42;21.20;99.90
46706;DHT22;33519;50.712;7.124;2023-05-07T14:47:08;20.70;99.90
46706;DHT22;33519;50.712;7.124;2023-05-07T14:49:35;20.50;99.90
46706;DHT22;33519;50.712;7.124;2023-05-07T14:52:02;20.20;99.90
46706;DHT22;33519;50.712;7.124;2023-05-07T14:54:29;20.10;99.90
46706;DHT22;33519;50.712;7.124;2023-05-07T14:56:55;19.80;99.90
46706;DHT22;33519;50.712;7.124;2023-05-07T14:59:22;19.30;99.90
46706;DHT22;33519;50.712;7.124;2023-05-07T15:01:51;18.80;99.90
46706;DHT22;33519;50.712;7.124;2023-05-07T15:04:18;18.30;99.90
46706;DHT22;33519;50.712;7.124;2023-05-07T15:06:44;17.80;99.90
46706;DHT22;33519;50.712;7.124;2023-05-07T15:09:12;17.40;99.90
46706;DHT22;33519;50.712;7.124;2023-05-07T15:11:38;17.20;99.90
46706;DHT22;33519;50.712;7.124;2023-05-07T15:14:05;17.10;99.90
46706;DHT22;33519;50.712;7.124;2023-05-07T15:16:32;17.00;99.90
46706;DHT22;33519;50.712;7.124;2023-05-07T15:18:59;16.90;99.90
46706;DHT22;33519;50.712;7.124;2023-05-07T15:21:26;16.80;99.90
46706;DHT22;33519;50.712;7.124;2023-05-07T15:23:53;16.80;99.90
46706;DHT22;33519;50.712;7.124;2023-05-07T15:26:20;16.70;99.90
46706;DHT22;33519;50.712;7.124;2023-05-07T15:28:47;16.60;99.90
46706;DHT22;33519;50.712;7.124;2023-05-07T15:31:14;16.60;99.90
46706;DHT22;33519;50.712;7.124;2023-05-07T15:33:41;16.60;99.90
46706;DHT22;33519;50.712;7.124;2023-05-07T15:36:08;16.60;99.90
46706;DHT22;33519;50.712;7.124;2023-05-07T15:38:34;16.60;99.90
46706;DHT22;33519;50.712;7.124;2023-05-07T15:41:01;16.60;99.90
46706;DHT22;33519;50.712;7.124;2023-05-07T15:43:27;16.70;99.90